createdAt,value
2023-01-22T00:01:57.000Z,7.1
2023-01-22T00:05:25.000Z,6.6
2023-01-22T00:08:53.000Z,6.5
2023-01-22T00:12:21.000Z,6.8
2023-01-22T00:15:11.000Z,6.2
2023-01-22T00:18:39.000Z,6.2
2023-01-22T00:22:06.000Z,6
2023-01-22T00:25:34.000Z,6.1
2023-01-22T00:29:02.000Z,5.3
2023-01-22T00:32:30.000Z,5.7
2023-01-22T00:35:58.000Z,5.9
2023-01-22T00:39:26.000Z,5.3
2023-01-22T00:42:54.000Z,5.5
2023-01-22T00:46:22.000Z,5
2023-01-22T00:49:50.000Z,5
2023-01-22T00:52:39.000Z,5.3
2023-01-22T00:56:06.000Z,5.1
2023-01-22T00:59:34.000Z,5.1
2023-01-22T01:03:02.000Z,5.4
2023-01-22T01:06:30.000Z,5.3
2023-01-22T01:09:58.000Z,5.3
2023-01-22T01:13:26.000Z,4.5
2023-01-22T01:16:54.000Z,4.6
2023-01-22T01:20:22.000Z,4.5
2023-01-22T01:23:50.000Z,4.6
2023-01-22T01:27:17.000Z,4
2023-01-22T01:30:07.000Z,4.1
2023-01-22T01:33:35.000Z,3.6
2023-01-22T01:37:03.000Z,3.8
2023-01-22T01:40:30.000Z,3.9
2023-01-22T01:43:58.000Z,3.6
2023-01-22T01:47:26.000Z,3.6
2023-01-22T01:50:54.000Z,3.6
2023-01-22T01:54:22.000Z,3.3
2023-01-22T01:57:50.000Z,3.5
2023-01-22T02:01:18.000Z,3.3
2023-01-22T02:04:46.000Z,2.9
2023-01-22T02:07:35.000Z,3.3
2023-01-22T02:11:03.000Z,3.2
2023-01-22T02:14:31.000Z,3.3
2023-01-22T02:17:59.000Z,2.9
2023-01-22T02:21:27.000Z,3.3
2023-01-22T02:24:55.000Z,3
2023-01-22T02:28:23.000Z,2.9
2023-01-22T02:31:51.000Z,2.9
2023-01-22T02:35:19.000Z,3.3
2023-01-22T02:38:47.000Z,3.2
2023-01-22T02:42:15.000Z,3
2023-01-22T02:45:04.000Z,2.8
2023-01-22T02:48:32.000Z,2.6
2023-01-22T02:52:00.000Z,2.7
2023-01-22T02:55:28.000Z,3.1
2023-01-22T02:58:56.000Z,2.6
2023-01-22T03:02:24.000Z,2.5
2023-01-22T03:05:52.000Z,2.8
2023-01-22T03:09:20.000Z,2.6
2023-01-22T03:12:48.000Z,2.5
2023-01-22T03:16:16.000Z,2.3
2023-01-22T03:19:44.000Z,3
2023-01-22T03:22:32.000Z,2.8
2023-01-22T03:26:00.000Z,2.8
2023-01-22T03:29:28.000Z,3
2023-01-22T03:32:56.000Z,3
2023-01-22T03:36:24.000Z,3.1
2023-01-22T03:39:52.000Z,3.2
2023-01-22T03:43:20.000Z,3
2023-01-22T03:46:48.000Z,3
2023-01-22T03:50:16.000Z,3.3
2023-01-22T03:53:44.000Z,3.2
2023-01-22T03:57:12.000Z,3.3
2023-01-22T04:00:01.000Z,3.5
2023-01-22T04:03:29.000Z,3.4
2023-01-22T04:06:57.000Z,3.7
2023-01-22T04:10:25.000Z,3.2
2023-01-22T04:13:53.000Z,3.5
2023-01-22T04:17:21.000Z,2.8
2023-01-22T04:20:49.000Z,3.3
2023-01-22T04:24:17.000Z,4
2023-01-22T04:27:45.000Z,3.8
2023-01-22T04:31:13.000Z,3.1
2023-01-22T04:34:41.000Z,3.2
2023-01-22T04:37:30.000Z,3.7
2023-01-22T04:40:58.000Z,3
2023-01-22T04:44:26.000Z,3
2023-01-22T04:47:54.000Z,3.2
2023-01-22T04:51:21.000Z,3.3
2023-01-22T04:54:49.000Z,3.1
2023-01-22T04:58:17.000Z,3.1
2023-01-22T05:01:45.000Z,2.9
2023-01-22T05:05:13.000Z,2.9
2023-01-22T05:08:41.000Z,2.8
2023-01-22T05:12:09.000Z,2.8
2023-01-22T05:14:58.000Z,3.5
2023-01-22T05:18:43.000Z,2.6
2023-01-22T05:22:11.000Z,3
2023-01-22T05:25:39.000Z,3.1
2023-01-22T05:29:07.000Z,3.5
2023-01-22T05:32:35.000Z,3.5
2023-01-22T05:36:03.000Z,3.3
2023-01-22T05:39:31.000Z,3.3
2023-01-22T05:42:59.000Z,3.1
2023-01-22T05:46:29.000Z,3.4
2023-01-22T05:49:57.000Z,3.6
2023-01-22T05:52:46.000Z,3.1
2023-01-22T05:56:14.000Z,2.7
2023-01-22T05:59:42.000Z,2.8
2023-01-22T06:03:10.000Z,4.1
2023-01-22T06:06:38.000Z,4.3
2023-01-22T06:10:06.000Z,3.1
2023-01-22T06:13:34.000Z,3
2023-01-22T06:17:02.000Z,3.7
2023-01-22T06:20:30.000Z,3.1
2023-01-22T06:23:58.000Z,3.7
2023-01-22T06:27:26.000Z,2.9
2023-01-22T06:30:15.000Z,3.7
2023-01-22T06:33:43.000Z,3.7
2023-01-22T06:37:11.000Z,3.8
2023-01-22T06:40:39.000Z,3.8
2023-01-22T06:44:07.000Z,3.7
2023-01-22T06:47:35.000Z,4
2023-01-22T06:51:03.000Z,3.7
2023-01-22T06:54:31.000Z,3.5
2023-01-22T06:57:59.000Z,4
2023-01-22T07:01:27.000Z,3.6
2023-01-22T07:04:55.000Z,3.8
2023-01-22T07:07:44.000Z,3.7
2023-01-22T07:11:12.000Z,3.4
2023-01-22T07:14:40.000Z,3.7
2023-01-22T07:18:07.000Z,4
2023-01-22T07:21:35.000Z,4.1
2023-01-22T07:25:03.000Z,3.6
2023-01-22T07:28:31.000Z,3.3
2023-01-22T07:31:59.000Z,4
2023-01-22T07:35:27.000Z,3.8
2023-01-22T07:38:55.000Z,3.7
2023-01-22T07:42:23.000Z,4
2023-01-22T07:48:43.000Z,5
2023-01-22T07:52:10.000Z,3.8
2023-01-22T07:55:38.000Z,3.7
2023-01-22T07:59:06.000Z,3.5
2023-01-22T08:02:34.000Z,3.9
2023-01-22T08:06:02.000Z,3.6
2023-01-22T08:09:30.000Z,20.3
2023-01-22T08:12:58.000Z,6.7
2023-01-22T08:16:26.000Z,12.6
2023-01-22T08:19:54.000Z,9.9
2023-01-22T08:23:22.000Z,7.6
2023-01-22T08:26:11.000Z,12.1
2023-01-22T08:29:39.000Z,13.6
2023-01-22T08:33:23.000Z,8.1
2023-01-22T08:36:51.000Z,6.1
2023-01-22T08:40:19.000Z,4.7
2023-01-22T08:43:47.000Z,4.1
2023-01-22T08:47:15.000Z,4.3
2023-01-22T08:50:44.000Z,4.6
2023-01-22T08:54:12.000Z,4.6
2023-01-22T08:57:43.000Z,4.1
2023-01-22T09:01:14.000Z,4.2
2023-01-22T09:04:03.000Z,4.2
2023-01-22T09:07:31.000Z,4.3
2023-01-22T09:11:00.000Z,4.3
2023-01-22T09:14:29.000Z,4.7
2023-01-22T09:17:57.000Z,4.3
2023-01-22T09:21:27.000Z,6.7
2023-01-22T09:25:00.000Z,5.8
2023-01-22T09:28:32.000Z,5
2023-01-22T09:32:05.000Z,4.1
2023-01-22T09:35:38.000Z,5.3
2023-01-22T09:39:10.000Z,4.5
2023-01-22T09:42:01.000Z,4.9
2023-01-22T09:45:33.000Z,4.6
2023-01-22T09:49:02.000Z,4.6
2023-01-22T09:52:34.000Z,5.9
2023-01-22T09:56:02.000Z,5.8
2023-01-22T09:59:31.000Z,4.5
2023-01-22T10:02:59.000Z,5.1
2023-01-22T10:06:27.000Z,5.2
2023-01-22T10:09:56.000Z,24.8
2023-01-22T10:13:24.000Z,20.3
2023-01-22T10:19:00.000Z,17
2023-01-22T10:21:44.000Z,22.5
2023-01-22T10:25:13.000Z,13.1
2023-01-22T10:28:45.000Z,7
2023-01-22T10:32:18.000Z,5.4
2023-01-22T10:35:50.000Z,5.8
2023-01-22T10:39:23.000Z,22.2
2023-01-22T10:42:56.000Z,36.4
2023-01-22T10:46:28.000Z,20.9
2023-01-22T10:50:01.000Z,13.8
2023-01-22T10:53:34.000Z,7.8
2023-01-22T10:57:07.000Z,6.8
2023-01-22T10:59:58.000Z,7
2023-01-22T11:03:31.000Z,9.4
2023-01-22T11:07:04.000Z,7.9
2023-01-22T11:10:36.000Z,8.7
2023-01-22T11:14:09.000Z,8
2023-01-22T11:17:41.000Z,9.3
2023-01-22T11:21:20.000Z,6.5
2023-01-22T11:24:52.000Z,5.8
2023-01-22T11:28:25.000Z,6.2
2023-01-22T11:31:58.000Z,6
2023-01-22T11:35:30.000Z,5.4
2023-01-22T11:38:22.000Z,5.4
2023-01-22T11:41:54.000Z,6.1
2023-01-22T11:45:27.000Z,5.8
2023-01-22T11:48:59.000Z,5.4
2023-01-22T11:52:32.000Z,6.6
2023-01-22T11:56:05.000Z,5.5
2023-01-22T11:59:37.000Z,5.3
2023-01-22T12:03:10.000Z,5.8
2023-01-22T12:06:42.000Z,6
2023-01-22T12:10:15.000Z,6
2023-01-22T12:13:48.000Z,5.9
2023-01-22T12:16:39.000Z,6.3
2023-01-22T12:20:11.000Z,6
2023-01-22T12:23:45.000Z,6.5
2023-01-22T12:27:17.000Z,5.9
2023-01-22T12:30:50.000Z,5.8
2023-01-22T12:34:23.000Z,5
2023-01-22T12:37:56.000Z,5
2023-01-22T12:41:28.000Z,5
2023-01-22T12:45:01.000Z,4.7
2023-01-22T12:48:34.000Z,5.1
2023-01-22T12:52:06.000Z,6.1
2023-01-22T12:54:57.000Z,6.1
2023-01-22T12:58:30.000Z,5.7
2023-01-22T13:02:03.000Z,6.7
2023-01-22T13:05:35.000Z,7.4
2023-01-22T13:09:08.000Z,6.8
2023-01-22T13:12:41.000Z,4.5
2023-01-22T13:16:14.000Z,6
2023-01-22T13:20:00.000Z,6.5
2023-01-22T13:23:33.000Z,5.7
2023-01-22T13:27:05.000Z,5.3
2023-01-22T13:30:38.000Z,5.1
2023-01-22T13:33:29.000Z,5.4
2023-01-22T13:37:02.000Z,5.7
2023-01-22T13:40:34.000Z,5.1
2023-01-22T13:44:16.000Z,5.3
2023-01-22T13:47:49.000Z,6
2023-01-22T13:51:22.000Z,5.3
2023-01-22T13:54:54.000Z,6.2
2023-01-22T13:58:27.000Z,5.5
2023-01-22T14:02:12.000Z,5.8
2023-01-22T14:05:45.000Z,5.2
2023-01-22T14:09:18.000Z,6.7
2023-01-22T14:12:09.000Z,6.5
2023-01-22T14:15:42.000Z,7
2023-01-22T14:19:14.000Z,5.8
2023-01-22T14:22:47.000Z,6.4
2023-01-22T14:26:20.000Z,7.1
2023-01-22T14:29:52.000Z,6.6
2023-01-22T14:33:25.000Z,7
2023-01-22T14:36:58.000Z,6.9
2023-01-22T14:40:30.000Z,6.4
2023-01-22T14:44:03.000Z,8.3
2023-01-22T14:47:36.000Z,8.7
2023-01-22T14:50:27.000Z,7.7
2023-01-22T14:54:00.000Z,7.4
2023-01-22T14:57:32.000Z,7.1
2023-01-22T15:01:05.000Z,6
2023-01-22T15:04:38.000Z,7.5
2023-01-22T15:08:10.000Z,6.8
2023-01-22T15:11:43.000Z,7.3
2023-01-22T15:15:16.000Z,6.9
2023-01-22T15:18:48.000Z,6.8
2023-01-22T15:22:19.000Z,7.3
2023-01-22T15:25:49.000Z,7.8
2023-01-22T15:28:40.000Z,7.5
2023-01-22T15:32:10.000Z,7.8
2023-01-22T15:35:39.000Z,8.8
2023-01-22T15:39:07.000Z,8.4
2023-01-22T15:42:35.000Z,8.3
2023-01-22T15:46:04.000Z,8.9
2023-01-22T15:49:32.000Z,8.4
2023-01-22T15:53:01.000Z,10.8
2023-01-22T15:56:29.000Z,11.9
2023-01-22T15:59:57.000Z,11.9
2023-01-22T16:03:25.000Z,10.2
2023-01-22T16:06:15.000Z,12.6
2023-01-22T16:09:48.000Z,13.1
2023-01-22T16:13:16.000Z,11.4
2023-01-22T16:16:44.000Z,12.1
2023-01-22T16:20:12.000Z,11.8
2023-01-22T16:23:41.000Z,16.8
2023-01-22T16:27:10.000Z,16.3
2023-01-22T16:30:38.000Z,16.7
2023-01-22T16:34:06.000Z,13.3
2023-01-22T16:37:34.000Z,12.6
2023-01-22T16:41:03.000Z,18.8
2023-01-22T16:43:52.000Z,14.6
2023-01-22T16:47:20.000Z,13
2023-01-22T16:50:48.000Z,12.7
2023-01-22T16:54:19.000Z,19
2023-01-22T16:57:47.000Z,15.7
2023-01-22T17:01:15.000Z,14.8
2023-01-22T17:04:43.000Z,13.2
2023-01-22T17:08:12.000Z,12.5
2023-01-22T17:11:40.000Z,14.6
2023-01-22T17:15:08.000Z,30.1
2023-01-22T17:18:36.000Z,16.4
2023-01-22T17:21:25.000Z,17.1
2023-01-22T17:24:53.000Z,13.3
2023-01-22T17:28:21.000Z,15.2
2023-01-22T17:31:49.000Z,16.4
2023-01-22T17:35:18.000Z,16.8
2023-01-22T17:38:46.000Z,19.2
2023-01-22T17:42:14.000Z,16.8
2023-01-22T17:45:42.000Z,17
2023-01-22T17:49:10.000Z,14.8
2023-01-22T17:52:38.000Z,15.1
2023-01-22T17:56:07.000Z,14.5
2023-01-22T17:58:56.000Z,13.3
2023-01-22T18:02:24.000Z,12.5
2023-01-22T18:05:52.000Z,10.9
2023-01-22T18:09:20.000Z,11.2
2023-01-22T18:12:48.000Z,9.1
2023-01-22T18:16:17.000Z,9.4
2023-01-22T18:19:45.000Z,9.6
2023-01-22T18:23:13.000Z,9.4
2023-01-22T18:26:41.000Z,9.1
2023-01-22T18:30:09.000Z,9.6
2023-01-22T18:33:37.000Z,11.5
2023-01-22T18:36:27.000Z,11.4
2023-01-22T18:39:55.000Z,11.1
2023-01-22T18:43:23.000Z,10.4
2023-01-22T18:46:51.000Z,13.2
2023-01-22T18:50:19.000Z,19.5
2023-01-22T18:53:47.000Z,12.4
2023-01-22T18:57:15.000Z,12.6
2023-01-22T19:00:43.000Z,11.1
2023-01-22T19:04:11.000Z,12.8
2023-01-22T19:07:39.000Z,12.3
2023-01-22T19:11:07.000Z,12.7
2023-01-22T19:16:02.000Z,10.5
2023-01-22T19:19:31.000Z,10.6
2023-01-22T19:22:59.000Z,10.8
2023-01-22T19:26:26.000Z,11.1
2023-01-22T19:29:54.000Z,10.3
2023-01-22T19:33:23.000Z,9.6
2023-01-22T19:36:51.000Z,10
2023-01-22T19:40:19.000Z,10
2023-01-22T19:43:47.000Z,8.6
2023-01-22T19:47:15.000Z,10.6
2023-01-22T19:50:43.000Z,10.3
2023-01-22T19:53:27.000Z,10.6
2023-01-22T19:56:55.000Z,9.9
2023-01-22T20:00:22.000Z,10.2
2023-01-22T20:03:51.000Z,10
2023-01-22T20:07:19.000Z,9.3
2023-01-22T20:10:47.000Z,10.4
2023-01-22T20:14:15.000Z,10.1
2023-01-22T20:17:43.000Z,10.5
2023-01-22T20:21:11.000Z,10.6
2023-01-22T20:24:39.000Z,10
2023-01-22T20:28:07.000Z,10.7
2023-01-22T20:30:56.000Z,10.7
2023-01-22T20:34:24.000Z,10.4
2023-01-22T20:37:52.000Z,10.5
2023-01-22T20:41:20.000Z,11
2023-01-22T20:44:48.000Z,10.5
2023-01-22T20:48:16.000Z,10
2023-01-22T20:51:44.000Z,9.8
2023-01-22T20:55:12.000Z,10
2023-01-22T20:58:40.000Z,10.3
2023-01-22T21:02:08.000Z,7.6
2023-01-22T21:05:36.000Z,9.5
2023-01-22T21:08:26.000Z,9.6
2023-01-22T21:11:54.000Z,8
2023-01-22T21:15:21.000Z,9.1
2023-01-22T21:18:49.000Z,8.2
2023-01-22T21:22:17.000Z,8.8
2023-01-22T21:25:45.000Z,10.3
2023-01-22T21:29:13.000Z,10.5
2023-01-22T21:32:41.000Z,10.8
2023-01-22T21:36:09.000Z,10.1
2023-01-22T21:39:37.000Z,11.4
2023-01-22T21:43:05.000Z,11.2
2023-01-22T21:45:54.000Z,10.6
2023-01-22T21:49:23.000Z,10.9
2023-01-22T21:52:51.000Z,10.9
2023-01-22T21:56:19.000Z,10.7
2023-01-22T21:59:47.000Z,10.5
2023-01-22T22:03:15.000Z,9.8
2023-01-22T22:06:43.000Z,10.5
2023-01-22T22:10:11.000Z,10.3
2023-01-22T22:13:39.000Z,11.1
2023-01-22T22:17:07.000Z,12.1
2023-01-22T22:20:35.000Z,11.6
2023-01-22T22:23:24.000Z,10.9
2023-01-22T22:26:52.000Z,11.1
2023-01-22T22:30:20.000Z,11.4
2023-01-22T22:33:49.000Z,10.6
2023-01-22T22:37:17.000Z,11.7
2023-01-22T22:40:45.000Z,13.1
2023-01-22T22:44:13.000Z,13.3
2023-01-22T22:47:41.000Z,11.6
2023-01-22T22:51:09.000Z,12.5
2023-01-22T22:54:37.000Z,11.4
2023-01-22T22:58:05.000Z,11.7
2023-01-22T23:04:19.000Z,18.5
2023-01-22T23:07:47.000Z,15.1
2023-01-22T23:11:15.000Z,12.4
2023-01-22T23:14:43.000Z,12.6
2023-01-22T23:18:11.000Z,13.3
2023-01-22T23:21:39.000Z,12.3
2023-01-22T23:25:07.000Z,11.1
2023-01-22T23:28:35.000Z,13.2
2023-01-22T23:32:03.000Z,12.3
2023-01-22T23:35:31.000Z,12.5
2023-01-22T23:38:59.000Z,12.1
2023-01-22T23:41:48.000Z,13.9
2023-01-22T23:45:16.000Z,12.7
2023-01-22T23:48:45.000Z,11.6
2023-01-22T23:52:13.000Z,12.4
2023-01-22T23:55:41.000Z,13.2
2023-01-22T23:59:09.000Z,12.6
